This is the latest recevied weather packets stored in our database for station/object IW0RQH-13. If no packets are shown the sender has not sent any weather packets the latest 10 day(s).
| Time | Temp. | Humidity | Pressure | Rain* | Wind** | Luminosity | Snow |
|---|---|---|---|---|---|---|---|
| 1777357623 | 12.78° C | 78% | 1015.8 hPa | 0 mm | - | 226 W/m² | - |
| 1777352943 | 12.22° C | 78% | 1015.9 hPa | 0 mm | - | 66 W/m² | - |
| 1777350447 | 11.11° C | 80% | 1015.7 hPa | 0 mm | - | 13 W/m² | - |
| 1777342683 | 12.78° C | 76% | 1016.1 hPa | 0 mm | - | 0 W/m² | - |
| 1777340705 | 12.78° C | 76% | 1016.1 hPa | 0 mm | - | 0 W/m² | - |
| 1777338003 | 12.78° C | 74% | 1016.3 hPa | 0 mm | - | 0 W/m² | - |
| 1777330805 | 14.44° C | 68% | 1016.3 hPa | 0 mm | - | 0 W/m² | - |
| 1777328824 | 15° C | 67% | 1016.5 hPa | 0 mm | - | 0 W/m² | - |
| 1777327205 | 15° C | 67% | 1016.2 hPa | 0 mm | - | 0 W/m² | - |
| 1777326304 | 15° C | 67% | 1016.3 hPa | 0 mm | - | 0 W/m² | - |
| 1777325763 | 15° C | 67% | 1016.3 hPa | 0 mm | - | 0 W/m² | - |
| 1777325223 | 15.56° C | 66% | 1016.3 hPa | 0 mm | - | 0 W/m² | - |
| 1777324683 | 15.56° C | 65% | 1016.2 hPa | 0 mm | - | 0 W/m² | - |
| 1777322706 | 16.11° C | 62% | 1016.3 hPa | 0 mm | - | 0 W/m² | - |
| 1777320544 | 17.78° C | 58% | 1016.3 hPa | 0 mm | - | 0 W/m² | - |
| 1777313883 | 21.11° C | 46% | 1015.1 hPa | 0 mm | - | 0 W/m² | - |
| 1777313346 | 21.67° C | 44% | 1014.5 hPa | 0 mm | - | 1 W/m² | - |
| 1777306683 | 24.44° C | 38% | 1014.4 hPa | 0 mm | - | 141 W/m² | - |
| 1777305243 | 25° C | 36% | 1014.9 hPa | 0 mm | - | 192 W/m² | - |
| 1777302545 | 24.44° C | 37% | 1014.8 hPa | 0 mm | - | 297 W/m² | - |
| 1777298943 | 23.89° C | 34% | 1015.3 hPa | 0 mm | - | 414 W/m² | - |
| 1777298044 | 24.44° C | 35% | 1015.5 hPa | 0 mm | - | 482 W/m² | - |
| 1777282599 | 20° C | 48% | 1018.2 hPa | 0 mm | - | 662 W/m² | - |
| 1777269264 | 12.22° C | 73% | 1019.1 hPa | 0 mm | - | 150 W/m² | - |
| 1777268703 | 11.67° C | 74% | 1019 hPa | 0 mm | - | 135 W/m² | - |
* Rain latest hour (hover to see other rain measurements)
** Current wind speed in m/s (hover to see current wind gust speed)